sensor_id;sensor_type;location;lat;lon;timestamp;P1;durP1;ratioP1;P2;durP2;ratioP2
33285;SDS011;19656;50.096;20.014;2022-09-21T00:03:35;11.00;;;6.80;;
33285;SDS011;19656;50.096;20.014;2022-09-21T00:08:39;9.70;;;6.80;;
33285;SDS011;19656;50.096;20.014;2022-09-21T00:13:43;11.80;;;6.60;;
33285;SDS011;19656;50.096;20.014;2022-09-21T00:18:48;10.60;;;6.50;;
33285;SDS011;19656;50.096;20.014;2022-09-21T00:23:51;8.20;;;5.70;;
33285;SDS011;19656;50.096;20.014;2022-09-21T00:28:56;9.80;;;5.50;;
33285;SDS011;19656;50.096;20.014;2022-09-21T00:34:01;8.90;;;5.90;;
33285;SDS011;19656;50.096;20.014;2022-09-21T00:39:05;9.40;;;5.50;;
33285;SDS011;19656;50.096;20.014;2022-09-21T00:49:20;8.60;;;5.20;;
33285;SDS011;19656;50.096;20.014;2022-09-21T00:54:28;10.30;;;5.80;;
33285;SDS011;19656;50.096;20.014;2022-09-21T00:59:36;12.30;;;6.70;;
33285;SDS011;19656;50.096;20.014;2022-09-21T01:04:41;9.00;;;6.30;;
33285;SDS011;19656;50.096;20.014;2022-09-21T01:09:45;9.60;;;5.90;;
33285;SDS011;19656;50.096;20.014;2022-09-21T01:14:55;10.50;;;6.40;;
33285;SDS011;19656;50.096;20.014;2022-09-21T01:31:10;11.20;;;6.70;;
33285;SDS011;19656;50.096;20.014;2022-09-21T01:36:23;11.30;;;6.10;;
33285;SDS011;19656;50.096;20.014;2022-09-21T01:41:30;12.90;;;6.30;;
33285;SDS011;19656;50.096;20.014;2022-09-21T01:46:35;13.70;;;6.40;;
33285;SDS011;19656;50.096;20.014;2022-09-21T01:51:41;8.60;;;5.40;;
33285;SDS011;19656;50.096;20.014;2022-09-21T02:02:09;11.70;;;5.70;;
33285;SDS011;19656;50.096;20.014;2022-09-21T02:07:17;10.30;;;6.00;;
33285;SDS011;19656;50.096;20.014;2022-09-21T02:12:21;8.60;;;6.30;;
33285;SDS011;19656;50.096;20.014;2022-09-21T02:17:43;8.80;;;6.00;;
33285;SDS011;19656;50.096;20.014;2022-09-21T02:28:01;9.70;;;6.00;;
33285;SDS011;19656;50.096;20.014;2022-09-21T02:33:11;11.50;;;6.60;;
33285;SDS011;19656;50.096;20.014;2022-09-21T02:43:43;11.30;;;7.20;;
33285;SDS011;19656;50.096;20.014;2022-09-21T02:48:52;12.30;;;8.40;;
33285;SDS011;19656;50.096;20.014;2022-09-21T02:53:59;12.50;;;8.80;;
33285;SDS011;19656;50.096;20.014;2022-09-21T02:59:06;13.80;;;8.90;;
33285;SDS011;19656;50.096;20.014;2022-09-21T03:04:09;15.90;;;9.40;;
33285;SDS011;19656;50.096;20.014;2022-09-21T03:09:12;13.90;;;8.80;;
33285;SDS011;19656;50.096;20.014;2022-09-21T03:14:15;15.10;;;9.40;;
33285;SDS011;19656;50.096;20.014;2022-09-21T03:19:18;15.60;;;9.60;;
33285;SDS011;19656;50.096;20.014;2022-09-21T03:24:21;14.10;;;9.30;;
33285;SDS011;19656;50.096;20.014;2022-09-21T03:29:43;17.00;;;10.80;;
33285;SDS011;19656;50.096;20.014;2022-09-21T03:34:47;13.30;;;10.30;;
33285;SDS011;19656;50.096;20.014;2022-09-21T03:39:50;14.10;;;9.10;;
33285;SDS011;19656;50.096;20.014;2022-09-21T03:44:53;12.30;;;9.40;;
33285;SDS011;19656;50.096;20.014;2022-09-21T03:49:56;14.40;;;10.00;;
33285;SDS011;19656;50.096;20.014;2022-09-21T03:54:59;13.70;;;9.80;;
33285;SDS011;19656;50.096;20.014;2022-09-21T04:00:03;13.20;;;9.60;;
33285;SDS011;19656;50.096;20.014;2022-09-21T04:05:10;12.50;;;8.90;;
33285;SDS011;19656;50.096;20.014;2022-09-21T04:10:17;13.60;;;8.90;;
33285;SDS011;19656;50.096;20.014;2022-09-21T04:15:22;13.90;;;9.00;;
33285;SDS011;19656;50.096;20.014;2022-09-21T04:20:26;13.00;;;9.20;;
33285;SDS011;19656;50.096;20.014;2022-09-21T04:25:29;12.20;;;9.80;;
33285;SDS011;19656;50.096;20.014;2022-09-21T04:30:32;14.40;;;9.70;;
33285;SDS011;19656;50.096;20.014;2022-09-21T04:35:39;13.80;;;10.00;;
33285;SDS011;19656;50.096;20.014;2022-09-21T04:40:42;12.60;;;9.30;;
33285;SDS011;19656;50.096;20.014;2022-09-21T04:45:45;11.10;;;8.20;;
33285;SDS011;19656;50.096;20.014;2022-09-21T04:50:48;11.10;;;8.10;;
33285;SDS011;19656;50.096;20.014;2022-09-21T04:55:52;12.10;;;8.80;;
33285;SDS011;19656;50.096;20.014;2022-09-21T05:00:56;10.60;;;8.50;;
33285;SDS011;19656;50.096;20.014;2022-09-21T05:05:59;12.10;;;9.00;;
33285;SDS011;19656;50.096;20.014;2022-09-21T05:11:03;12.40;;;8.60;;
33285;SDS011;19656;50.096;20.014;2022-09-21T05:16:07;11.00;;;9.00;;
33285;SDS011;19656;50.096;20.014;2022-09-21T05:21:11;10.50;;;8.10;;
33285;SDS011;19656;50.096;20.014;2022-09-21T05:26:15;14.20;;;8.00;;
33285;SDS011;19656;50.096;20.014;2022-09-21T05:31:26;13.30;;;8.00;;
33285;SDS011;19656;50.096;20.014;2022-09-21T05:41:48;14.30;;;8.10;;
33285;SDS011;19656;50.096;20.014;2022-09-21T05:57:54;12.60;;;7.10;;
33285;SDS011;19656;50.096;20.014;2022-09-21T06:08:33;12.90;;;7.30;;
33285;SDS011;19656;50.096;20.014;2022-09-21T06:13:37;13.40;;;8.30;;
33285;SDS011;19656;50.096;20.014;2022-09-21T06:18:40;10.70;;;7.90;;
33285;SDS011;19656;50.096;20.014;2022-09-21T06:23:45;11.20;;;7.50;;
33285;SDS011;19656;50.096;20.014;2022-09-21T06:28:50;12.70;;;7.70;;
33285;SDS011;19656;50.096;20.014;2022-09-21T06:33:53;11.30;;;7.40;;
33285;SDS011;19656;50.096;20.014;2022-09-21T06:38:56;9.60;;;7.20;;
33285;SDS011;19656;50.096;20.014;2022-09-21T06:43:59;11.20;;;7.70;;
33285;SDS011;19656;50.096;20.014;2022-09-21T06:49:03;12.10;;;8.30;;
33285;SDS011;19656;50.096;20.014;2022-09-21T06:54:06;14.50;;;8.00;;
33285;SDS011;19656;50.096;20.014;2022-09-21T06:59:14;12.80;;;9.10;;
33285;SDS011;19656;50.096;20.014;2022-09-21T07:04:17;13.30;;;9.20;;
33285;SDS011;19656;50.096;20.014;2022-09-21T07:09:26;16.60;;;11.30;;
33285;SDS011;19656;50.096;20.014;2022-09-21T07:14:49;19.70;;;10.40;;
33285;SDS011;19656;50.096;20.014;2022-09-21T07:19:52;13.50;;;9.80;;
33285;SDS011;19656;50.096;20.014;2022-09-21T07:24:55;14.30;;;9.90;;
33285;SDS011;19656;50.096;20.014;2022-09-21T07:29:59;12.60;;;8.40;;
33285;SDS011;19656;50.096;20.014;2022-09-21T07:35:02;17.90;;;9.50;;
33285;SDS011;19656;50.096;20.014;2022-09-21T07:40:06;14.20;;;9.80;;
33285;SDS011;19656;50.096;20.014;2022-09-21T07:45:09;13.80;;;9.40;;
33285;SDS011;19656;50.096;20.014;2022-09-21T07:50:12;22.10;;;12.80;;
33285;SDS011;19656;50.096;20.014;2022-09-21T07:55:16;15.90;;;9.40;;
33285;SDS011;19656;50.096;20.014;2022-09-21T08:00:19;17.30;;;10.50;;
33285;SDS011;19656;50.096;20.014;2022-09-21T08:05:23;13.30;;;10.70;;
33285;SDS011;19656;50.096;20.014;2022-09-21T08:10:25;14.20;;;10.30;;
33285;SDS011;19656;50.096;20.014;2022-09-21T08:15:30;9.80;;;7.00;;
33285;SDS011;19656;50.096;20.014;2022-09-21T08:20:54;13.80;;;8.60;;
33285;SDS011;19656;50.096;20.014;2022-09-21T08:25:58;15.70;;;10.20;;
33285;SDS011;19656;50.096;20.014;2022-09-21T08:31:08;22.40;;;15.30;;
33285;SDS011;19656;50.096;20.014;2022-09-21T08:36:11;16.40;;;10.70;;
33285;SDS011;19656;50.096;20.014;2022-09-21T08:46:49;13.40;;;9.60;;
33285;SDS011;19656;50.096;20.014;2022-09-21T08:52:06;13.60;;;10.60;;
33285;SDS011;19656;50.096;20.014;2022-09-21T08:57:18;11.70;;;9.50;;
33285;SDS011;19656;50.096;20.014;2022-09-21T09:07:50;10.60;;;6.80;;
33285;SDS011;19656;50.096;20.014;2022-09-21T09:18:47;9.40;;;6.80;;
33285;SDS011;19656;50.096;20.014;2022-09-21T09:24:00;9.70;;;7.30;;
33285;SDS011;19656;50.096;20.014;2022-09-21T09:29:15;7.60;;;5.10;;
33285;SDS011;19656;50.096;20.014;2022-09-21T09:34:33;5.60;;;3.60;;
33285;SDS011;19656;50.096;20.014;2022-09-21T09:39:40;5.90;;;2.90;;
33285;SDS011;19656;50.096;20.014;2022-09-21T09:50:19;3.20;;;2.60;;
33285;SDS011;19656;50.096;20.014;2022-09-21T09:55:44;3.70;;;2.60;;
33285;SDS011;19656;50.096;20.014;2022-09-21T10:00:51;5.50;;;3.30;;
33285;SDS011;19656;50.096;20.014;2022-09-21T10:05:58;4.90;;;2.60;;
33285;SDS011;19656;50.096;20.014;2022-09-21T10:11:02;4.10;;;2.50;;
33285;SDS011;19656;50.096;20.014;2022-09-21T10:26:23;5.90;;;3.10;;
33285;SDS011;19656;50.096;20.014;2022-09-21T10:31:27;4.50;;;3.10;;
33285;SDS011;19656;50.096;20.014;2022-09-21T10:36:33;4.00;;;3.10;;
33285;SDS011;19656;50.096;20.014;2022-09-21T10:41:37;4.30;;;3.60;;
33285;SDS011;19656;50.096;20.014;2022-09-21T10:46:40;5.50;;;4.10;;
33285;SDS011;19656;50.096;20.014;2022-09-21T10:51:43;5.90;;;4.20;;
33285;SDS011;19656;50.096;20.014;2022-09-21T10:56:49;7.00;;;4.30;;
33285;SDS011;19656;50.096;20.014;2022-09-21T11:01:56;7.00;;;4.30;;
33285;SDS011;19656;50.096;20.014;2022-09-21T11:18:21;7.30;;;4.80;;
33285;SDS011;19656;50.096;20.014;2022-09-21T11:56:02;7.40;;;5.50;;
33285;SDS011;19656;50.096;20.014;2022-09-21T12:01:32;7.00;;;5.40;;
33285;SDS011;19656;50.096;20.014;2022-09-21T12:12:16;8.60;;;6.40;;
33285;SDS011;19656;50.096;20.014;2022-09-21T12:17:45;6.50;;;5.60;;
33285;SDS011;19656;50.096;20.014;2022-09-21T12:23:13;6.70;;;5.20;;
33285;SDS011;19656;50.096;20.014;2022-09-21T12:28:24;8.50;;;5.00;;
33285;SDS011;19656;50.096;20.014;2022-09-21T12:33:42;5.00;;;4.50;;
33285;SDS011;19656;50.096;20.014;2022-09-21T12:49:42;6.00;;;4.70;;
33285;SDS011;19656;50.096;20.014;2022-09-21T12:55:03;4.60;;;3.60;;
33285;SDS011;19656;50.096;20.014;2022-09-21T13:00:23;4.70;;;3.40;;
33285;SDS011;19656;50.096;20.014;2022-09-21T13:05:34;4.70;;;3.40;;
33285;SDS011;19656;50.096;20.014;2022-09-21T13:15:56;5.90;;;3.10;;
33285;SDS011;19656;50.096;20.014;2022-09-21T13:21:13;6.90;;;3.00;;
33285;SDS011;19656;50.096;20.014;2022-09-21T13:26:26;3.60;;;2.90;;
33285;SDS011;19656;50.096;20.014;2022-09-21T13:31:41;4.80;;;3.40;;
33285;SDS011;19656;50.096;20.014;2022-09-21T13:47:33;2.50;;;1.90;;
33285;SDS011;19656;50.096;20.014;2022-09-21T13:52:43;1.30;;;1.20;;
33285;SDS011;19656;50.096;20.014;2022-09-21T13:57:50;3.20;;;1.40;;
33285;SDS011;19656;50.096;20.014;2022-09-21T14:02:57;2.30;;;1.70;;
33285;SDS011;19656;50.096;20.014;2022-09-21T14:08:16;2.40;;;1.70;;
33285;SDS011;19656;50.096;20.014;2022-09-21T14:18:37;2.50;;;1.90;;
33285;SDS011;19656;50.096;20.014;2022-09-21T14:23:40;2.70;;;2.10;;
33285;SDS011;19656;50.096;20.014;2022-09-21T14:29:10;4.60;;;2.70;;
33285;SDS011;19656;50.096;20.014;2022-09-21T14:34:22;4.50;;;2.60;;
33285;SDS011;19656;50.096;20.014;2022-09-21T14:39:29;2.50;;;1.30;;
33285;SDS011;19656;50.096;20.014;2022-09-21T14:44:35;2.10;;;1.40;;
33285;SDS011;19656;50.096;20.014;2022-09-21T15:00:21;1.50;;;1.20;;
33285;SDS011;19656;50.096;20.014;2022-09-21T15:05:37;5.40;;;1.80;;
33285;SDS011;19656;50.096;20.014;2022-09-21T15:21:27;6.60;;;1.80;;
33285;SDS011;19656;50.096;20.014;2022-09-21T15:26:32;6.10;;;1.90;;
33285;SDS011;19656;50.096;20.014;2022-09-21T15:31:37;2.20;;;1.40;;
33285;SDS011;19656;50.096;20.014;2022-09-21T15:36:42;3.00;;;1.90;;
33285;SDS011;19656;50.096;20.014;2022-09-21T15:41:46;5.10;;;1.80;;
33285;SDS011;19656;50.096;20.014;2022-09-21T15:46:53;4.10;;;1.70;;
33285;SDS011;19656;50.096;20.014;2022-09-21T15:57:32;6.20;;;1.80;;
33285;SDS011;19656;50.096;20.014;2022-09-21T16:02:48;6.40;;;1.90;;
33285;SDS011;19656;50.096;20.014;2022-09-21T16:08:59;3.10;;;0.80;;
33285;SDS011;19656;50.096;20.014;2022-09-21T16:13:37;1.00;;;0.90;;
33285;SDS011;19656;50.096;20.014;2022-09-21T16:18:58;1.20;;;0.60;;
33285;SDS011;19656;50.096;20.014;2022-09-21T16:24:09;2.20;;;0.80;;
33285;SDS011;19656;50.096;20.014;2022-09-21T16:29:22;1.60;;;0.80;;
33285;SDS011;19656;50.096;20.014;2022-09-21T16:34:31;1.20;;;0.80;;
33285;SDS011;19656;50.096;20.014;2022-09-21T16:39:36;0.80;;;0.70;;
33285;SDS011;19656;50.096;20.014;2022-09-21T16:44:39;2.80;;;1.00;;
33285;SDS011;19656;50.096;20.014;2022-09-21T16:49:46;3.30;;;1.50;;
33285;SDS011;19656;50.096;20.014;2022-09-21T16:54:49;2.00;;;1.20;;
33285;SDS011;19656;50.096;20.014;2022-09-21T16:59:53;1.60;;;1.20;;
33285;SDS011;19656;50.096;20.014;2022-09-21T17:04:56;1.80;;;1.20;;
33285;SDS011;19656;50.096;20.014;2022-09-21T17:10:09;2.70;;;1.50;;
33285;SDS011;19656;50.096;20.014;2022-09-21T17:15:16;6.10;;;1.50;;
33285;SDS011;19656;50.096;20.014;2022-09-21T17:20:26;2.80;;;1.50;;
33285;SDS011;19656;50.096;20.014;2022-09-21T17:25:35;4.10;;;1.80;;
33285;SDS011;19656;50.096;20.014;2022-09-21T17:30:38;3.30;;;1.70;;
33285;SDS011;19656;50.096;20.014;2022-09-21T17:35:44;2.50;;;1.50;;
33285;SDS011;19656;50.096;20.014;2022-09-21T17:40:47;2.60;;;1.70;;
33285;SDS011;19656;50.096;20.014;2022-09-21T17:45:58;4.00;;;1.80;;
33285;SDS011;19656;50.096;20.014;2022-09-21T17:51:10;3.30;;;1.60;;
33285;SDS011;19656;50.096;20.014;2022-09-21T18:01:47;4.10;;;2.00;;
33285;SDS011;19656;50.096;20.014;2022-09-21T18:06:50;4.90;;;1.90;;
33285;SDS011;19656;50.096;20.014;2022-09-21T18:17:18;3.70;;;2.30;;
33285;SDS011;19656;50.096;20.014;2022-09-21T18:22:48;6.60;;;2.90;;
33285;SDS011;19656;50.096;20.014;2022-09-21T18:28:21;8.10;;;3.70;;
33285;SDS011;19656;50.096;20.014;2022-09-21T18:33:38;7.80;;;3.90;;
33285;SDS011;19656;50.096;20.014;2022-09-21T18:44:30;8.30;;;4.50;;
33285;SDS011;19656;50.096;20.014;2022-09-21T18:55:10;8.00;;;4.50;;
33285;SDS011;19656;50.096;20.014;2022-09-21T19:00:28;7.80;;;5.00;;
33285;SDS011;19656;50.096;20.014;2022-09-21T19:05:37;6.70;;;5.20;;
33285;SDS011;19656;50.096;20.014;2022-09-21T19:10:51;7.20;;;4.90;;
33285;SDS011;19656;50.096;20.014;2022-09-21T19:16:15;9.40;;;6.00;;
33285;SDS011;19656;50.096;20.014;2022-09-21T19:21:55;10.00;;;7.10;;
33285;SDS011;19656;50.096;20.014;2022-09-21T19:27:06;10.40;;;6.50;;
33285;SDS011;19656;50.096;20.014;2022-09-21T19:32:42;13.30;;;7.20;;
33285;SDS011;19656;50.096;20.014;2022-09-21T19:37:48;10.80;;;7.30;;
33285;SDS011;19656;50.096;20.014;2022-09-21T19:43:05;11.40;;;7.00;;
33285;SDS011;19656;50.096;20.014;2022-09-21T19:48:25;13.60;;;7.90;;
33285;SDS011;19656;50.096;20.014;2022-09-21T19:53:29;14.50;;;7.20;;
33285;SDS011;19656;50.096;20.014;2022-09-21T19:58:52;12.70;;;7.00;;
33285;SDS011;19656;50.096;20.014;2022-09-21T20:04:14;14.30;;;7.20;;
33285;SDS011;19656;50.096;20.014;2022-09-21T20:09:19;11.60;;;6.70;;
33285;SDS011;19656;50.096;20.014;2022-09-21T20:19:42;12.80;;;8.40;;
33285;SDS011;19656;50.096;20.014;2022-09-21T20:25:08;11.10;;;7.10;;
33285;SDS011;19656;50.096;20.014;2022-09-21T20:30:13;11.10;;;7.10;;
33285;SDS011;19656;50.096;20.014;2022-09-21T20:35:19;16.40;;;7.40;;
33285;SDS011;19656;50.096;20.014;2022-09-21T20:40:24;11.30;;;7.40;;
33285;SDS011;19656;50.096;20.014;2022-09-21T20:50:34;14.00;;;7.40;;
33285;SDS011;19656;50.096;20.014;2022-09-21T20:55:39;14.30;;;8.50;;
33285;SDS011;19656;50.096;20.014;2022-09-21T21:00:42;13.30;;;7.50;;
33285;SDS011;19656;50.096;20.014;2022-09-21T21:05:47;13.70;;;7.70;;
33285;SDS011;19656;50.096;20.014;2022-09-21T21:10:50;15.40;;;8.60;;
33285;SDS011;19656;50.096;20.014;2022-09-21T21:15:57;16.00;;;8.90;;
33285;SDS011;19656;50.096;20.014;2022-09-21T21:21:02;15.80;;;8.60;;
33285;SDS011;19656;50.096;20.014;2022-09-21T21:26:06;16.50;;;8.70;;
33285;SDS011;19656;50.096;20.014;2022-09-21T21:31:09;14.00;;;8.60;;
33285;SDS011;19656;50.096;20.014;2022-09-21T21:36:13;14.00;;;9.80;;
33285;SDS011;19656;50.096;20.014;2022-09-21T21:41:16;13.50;;;9.10;;
33285;SDS011;19656;50.096;20.014;2022-09-21T21:46:19;14.90;;;8.40;;
33285;SDS011;19656;50.096;20.014;2022-09-21T21:51:22;13.20;;;8.30;;
33285;SDS011;19656;50.096;20.014;2022-09-21T21:56:26;17.50;;;8.60;;
33285;SDS011;19656;50.096;20.014;2022-09-21T22:01:29;14.70;;;8.50;;
33285;SDS011;19656;50.096;20.014;2022-09-21T22:06:33;13.90;;;8.50;;
33285;SDS011;19656;50.096;20.014;2022-09-21T22:11:38;12.80;;;8.90;;
33285;SDS011;19656;50.096;20.014;2022-09-21T22:16:40;13.80;;;9.00;;
33285;SDS011;19656;50.096;20.014;2022-09-21T22:21:44;14.80;;;8.90;;
33285;SDS011;19656;50.096;20.014;2022-09-21T22:26:55;12.20;;;8.30;;
33285;SDS011;19656;50.096;20.014;2022-09-21T22:31:58;16.20;;;8.10;;
33285;SDS011;19656;50.096;20.014;2022-09-21T22:37:02;11.30;;;7.90;;
33285;SDS011;19656;50.096;20.014;2022-09-21T22:42:05;13.30;;;8.70;;
33285;SDS011;19656;50.096;20.014;2022-09-21T22:47:08;14.00;;;8.70;;
33285;SDS011;19656;50.096;20.014;2022-09-21T22:52:11;11.90;;;8.00;;
33285;SDS011;19656;50.096;20.014;2022-09-21T22:57:14;11.90;;;8.00;;
33285;SDS011;19656;50.096;20.014;2022-09-21T23:02:17;12.30;;;7.90;;
33285;SDS011;19656;50.096;20.014;2022-09-21T23:07:20;13.70;;;8.00;;
33285;SDS011;19656;50.096;20.014;2022-09-21T23:12:22;13.20;;;8.10;;
33285;SDS011;19656;50.096;20.014;2022-09-21T23:17:26;12.80;;;8.50;;
33285;SDS011;19656;50.096;20.014;2022-09-21T23:22:30;15.20;;;8.50;;
33285;SDS011;19656;50.096;20.014;2022-09-21T23:27:33;14.00;;;8.90;;
33285;SDS011;19656;50.096;20.014;2022-09-21T23:32:36;15.00;;;8.70;;
33285;SDS011;19656;50.096;20.014;2022-09-21T23:37:39;13.30;;;8.50;;
33285;SDS011;19656;50.096;20.014;2022-09-21T23:42:42;14.40;;;8.10;;
33285;SDS011;19656;50.096;20.014;2022-09-21T23:47:45;13.40;;;7.80;;
33285;SDS011;19656;50.096;20.014;2022-09-21T23:52:48;12.40;;;8.80;;
33285;SDS011;19656;50.096;20.014;2022-09-21T23:57:50;15.20;;;9.40;;
